OIFS  Shahrekord  Airport

Shahrekord, Iran

Add Bookmark
ICAO OIFS
IATA CQD
Type Airport
Status Operational
Latitude
32° 17' 49" N
32.297199
Longitude
50° 50' 31" E
50.842201
Local (DST + 5) UTC (GMT + 4)
Aug 3, 2015 04:56 Aug 3, 2015 00:26
Sunrise-Sunset Local UTC
Begin Civil Twilight 05:54 01:24
Sunrise 06:21 01:51
Sunset 08:04 15:34
End Civil Twilight 08:30 16:00
VFR
VFR
MVFR
MVFR
IFR
IFR
LIFR
LIFR
Unknown
Unavailable

Current Weather

METAR Observed VFR
OIFS 030000Z 29006KT CAVOK 14/02 Q1024 Mon, Aug 3, 2015 @ 00:00 UTC
(26 Minutes ago)
Visual Flight Rules
Wind Visibility Conditions
290° at 6 knots (11 kph) 10 km or more
  • No significant weather
Temperatures Readings Precipitation
Current Temp
14°C
57°F
Dewpoint
2°C
36°F
Humidity 44%
Altimeter 30.24" Hg
Sea Level Pressure 1,024 mb
Field Elevation
2,078 m
6,818 ft
None Recorded
-
-

CheckWX.com is intended as a tool to help pilots better visualize weather data. It is not intended as a substitute for an official weather briefing obtained from a Flight Service Station. CheckWX.com does not meet the FAA requirements for an official pre-flight weather briefing. Therefore, it's important that pilots still call and obtain an official FSS pre-flight weather briefing.

© 2007-2015 CheckWX.com
00:26:22 UTC